Aérodrome :
LOGIN :

S'inscrire | Disclaimer

   EN    FR    IT 

 










Légende :    VFR   VFR Marginal   IFR   IFR Intensif   IFR Très Intensif
Visi : 
Plafond : 
>= 8 km
>= 3000ft
5 à 8 km
1000 à 3000 ft
1500m à 5 km
500 à 1000 ft
800 à 1500m
200 à 500 ft
< 800m
< 200 ft
Symboles :   Orages  Brouillard  Fortes neiges  Fortes précipitations  Vent > 20 kt
SIGMETs :   Divers  Orages  Givrage  Turbulence  Onde Orograph.  Cendres Volcan.






- Altitude de l'aérodrome : 458 ft


LFSI - St-Dizier

DERNIER METAR :
  • 271100Z AUTO 10004KT CAVOK 09/05 Q1017

METARs EXPIRÉS :
  • 271030Z AUTO 10004KT CAVOK 09/05 Q1018
  • 271000Z AUTO 10005KT CAVOK 08/05 Q1018
  • 270930Z AUTO 10006KT CAVOK 07/05 Q1018
  • 270900Z AUTO 09006KT CAVOK 06/04 Q1018
  • 270830Z AUTO 09005KT CAVOK 06/04 Q1018
  • 270800Z AUTO 09004KT CAVOK 05/03 Q1018

TAF TAF LFSI
Valide du 27 à 09h jusqu'au 28 à 09h UTC


270800Z 2709/2809 11005KT CAVOK
PROB40
TEMPO 2723/2807 4000 BR
TEMPO 2805/2808 BKN006



MET'MAP, la Météo Aéronautique d'un coup d'oeil ! - Copyright ORBIFLY Décembre 2007 - Disclaimer

ORBIFLY MET'MAP TEAM :

Programmation & Développement : Alexandra Zaïnal
Sur une idée originale de : Baudouin d'Aumeries
Assistance à la programmation : Marc-Olivier Méhu
Soutien technique & logistique : Manuel Goepfert

Contact : metmap@orbifly.com




SOURCES & CREDITS :

   NOAA